Boyes, Montana
Current Conditions -  °F | °C
As of 6:53 AM on Thursday 18 Dec 2014 (Local Time) from KGCC Reporting Station
Clear Clear  
Wind Chill: 18°   Ceiling: Unl
Heat Index: 26°   Visibility: 10mi
Dew Point: 18°   Wind: 8mph
Humidity: 71%   Direction: 210°SSW
Pressure: 29.96"   Gusts: NA
Location:  45.27°N, 105.03°W
Report Text: KGCC 181353Z AUTO 21007KT 10SM CLR M03/M08 A2996 RMK AO2 SLP190 T10331078 TSNO
Loading
Personal Weather Stations






























Interactive Weather Map New forecast layout! Learn more

10-Day Weather Forecast

Advertisements
Track Severe Weather on mobile